Time;durP1;ratioP1;P1;durP2;ratioP2;P2;SDS_P1;SDS_P2;PMS_P1;PMS_P2;Temp;Humidity;BMP_temperature;BMP_pressure;BME280_temperature;BME280_humidity;BME280_pressure;Samples;Min_cycle;Max_cycle;Signal;HPM_P1;HPM_P2
2022/05/08 00:00:15;;;;;;;23.63;5.10;;;8.30;99.90;;;;;;5041333;28;20076;-79
2022/05/08 00:02:41;;;;;;;20.65;4.80;;;8.30;99.90;;;;;;5050550;28;20572;-79
2022/05/08 00:05:12;;;;;;;19.73;4.45;;;8.30;99.90;;;;;;5036403;28;20040;-79
2022/05/08 00:07:38;;;;;;;16.77;4.18;;;8.30;99.90;;;;;;5039892;28;20032;-79
2022/05/08 00:10:04;;;;;;;21.45;5.00;;;8.30;99.90;;;;;;5061656;28;20110;-79
2022/05/08 00:12:31;;;;;;;18.30;4.38;;;8.20;99.90;;;;;;5036194;28;20045;-79
2022/05/08 00:14:56;;;;;;;18.15;4.28;;;8.20;99.90;;;;;;5037964;28;20083;-79
2022/05/08 00:17:22;;;;;;;18.45;4.32;;;8.20;99.90;;;;;;5035262;28;20091;-79
2022/05/08 00:19:48;;;;;;;19.33;5.78;;;9.00;99.90;;;;;;5043548;28;20041;-79
2022/05/08 00:22:14;;;;;;;17.13;3.80;;;8.20;99.90;;;;;;5033795;28;20072;-79
2022/05/08 00:24:40;;;;;;;18.52;4.97;;;8.10;99.90;;;;;;5053646;28;20056;-79
2022/05/08 00:27:07;;;;;;;22.50;4.95;;;8.30;99.90;;;;;;5062396;28;20501;-79
2022/05/08 00:29:33;;;;;;;20.92;4.88;;;8.10;99.90;;;;;;5042159;28;20044;-79
2022/05/08 00:31:59;;;;;;;15.50;4.03;;;8.10;99.90;;;;;;5039555;28;20033;-79
2022/05/08 00:34:24;;;;;;;18.45;4.53;;;8.10;99.90;;;;;;5064565;28;20428;-79
2022/05/08 00:36:50;;;;;;;22.73;4.75;;;8.00;99.90;;;;;;5060603;28;20037;-79
2022/05/08 00:39:20;;;;;;;13.20;4.18;;;8.00;99.90;;;;;;5050029;28;21180;-79
2022/05/08 00:41:46;;;;;;;19.88;4.25;;;8.50;99.90;;;;;;5033049;28;20028;-79
2022/05/08 00:44:13;;;;;;;17.13;4.40;;;7.90;99.90;;;;;;5045521;28;20029;-79
2022/05/08 00:46:39;;;;;;;18.40;4.22;;;7.90;99.90;;;;;;5054248;28;20048;-79
2022/05/08 00:49:05;;;;;;;23.10;4.80;;;7.90;99.90;;;;;;5052818;28;20541;-79
2022/05/08 00:51:31;;;;;;;15.80;3.97;;;7.90;99.90;;;;;;5031309;28;20044;-79
2022/05/08 00:54:00;;;;;;;22.08;4.75;;;7.90;99.90;;;;;;5053698;28;20036;-79
2022/05/08 00:56:26;;;;;;;20.02;4.95;;;8.70;99.90;;;;;;5048782;28;20036;-79
2022/05/08 00:58:52;;;;;;;19.75;5.15;;;7.80;99.90;;;;;;5062252;28;20040;-79
2022/05/08 01:01:18;;;;;;;15.30;4.30;;;7.80;99.90;;;;;;5043235;28;20032;-78
2022/05/08 01:03:45;;;;;;;19.42;3.92;;;7.80;99.90;;;;;;5047430;28;20115;-79
2022/05/08 01:06:12;;;;;;;18.80;4.00;;;8.00;99.90;;;;;;5043140;28;20485;-79
2022/05/08 01:08:40;;;;;;;16.75;4.05;;;7.80;99.90;;;;;;5057049;28;20048;-79
2022/05/08 01:11:07;;;;;;;16.08;3.92;;;7.80;99.90;;;;;;5048998;28;20056;-79
2022/05/08 01:13:34;;;;;;;16.80;3.60;;;8.20;99.90;;;;;;5059059;28;20043;-79
2022/05/08 01:16:00;;;;;;;16.02;3.58;;;7.80;99.90;;;;;;5035301;28;20398;-79
2022/05/08 01:18:27;;;;;;;19.73;4.78;;;7.80;99.90;;;;;;5048738;28;20041;-79
2022/05/08 01:20:53;;;;;;;15.63;3.60;;;7.70;99.90;;;;;;5042589;28;20477;-79
2022/05/08 01:23:19;;;;;;;17.48;3.95;;;7.70;99.90;;;;;;5042115;28;20079;-79
2022/05/08 01:25:47;;;;;;;20.40;3.90;;;8.60;99.90;;;;;;5048268;28;20067;-79
2022/05/08 01:28:14;;;;;;;13.35;3.42;;;7.70;99.90;;;;;;5047716;28;20044;-79
2022/05/08 01:30:41;;;;;;;14.55;3.88;;;7.60;99.90;;;;;;5029722;28;20033;-79
2022/05/08 01:33:07;;;;;;;15.65;3.80;;;8.40;99.90;;;;;;5044081;28;20044;-79
2022/05/08 01:35:34;;;;;;;11.80;3.50;;;7.60;99.90;;;;;;5054895;28;20508;-79
2022/05/08 01:37:59;;;;;;;16.75;3.95;;;7.50;99.90;;;;;;5039463;28;20049;-79
2022/05/08 01:40:25;;;;;;;16.90;3.70;;;7.50;99.90;;;;;;5032904;28;20410;-79
2022/05/08 01:42:51;;;;;;;15.55;3.78;;;7.50;99.90;;;;;;5030322;28;20040;-79
2022/05/08 01:45:17;;;;;;;18.30;3.90;;;7.80;99.90;;;;;;5054822;28;20127;-79
2022/05/08 01:50:27;;;;;;;18.40;3.67;;;7.40;99.90;;;;;;5024232;28;20037;-79
2022/05/08 01:52:52;;;;;;;16.63;4.10;;;7.90;99.90;;;;;;5031220;28;20051;-79
2022/05/08 01:55:18;;;;;;;15.98;3.80;;;7.40;99.90;;;;;;5039689;28;20071;-79
2022/05/08 01:57:44;;;;;;;15.13;3.45;;;7.30;99.90;;;;;;5044955;28;20075;-79
2022/05/08 02:00:10;;;;;;;19.17;3.70;;;7.30;99.90;;;;;;5053987;28;20450;-79
2022/05/08 02:02:37;;;;;;;15.52;3.67;;;7.30;99.90;;;;;;5053401;28;20132;-79
2022/05/08 02:05:04;;;;;;;16.30;4.00;;;7.30;99.90;;;;;;5015493;28;20048;-79
2022/05/08 02:07:30;;;;;;;15.68;3.78;;;7.30;99.90;;;;;;5065294;28;20041;-79
2022/05/08 02:09:56;;;;;;;20.38;4.60;;;7.30;99.90;;;;;;5037236;28;20047;-79
2022/05/08 02:12:22;;;;;;;14.73;3.42;;;8.30;99.90;;;;;;5056492;28;20468;-79
2022/05/08 02:14:48;;;;;;;18.70;4.25;;;7.30;99.90;;;;;;5028942;28;20045;-79
2022/05/08 02:17:13;;;;;;;13.45;3.67;;;7.30;99.90;;;;;;5043244;28;20129;-79
2022/05/08 02:19:39;;;;;;;14.20;4.07;;;7.30;99.90;;;;;;5030110;28;20057;-79
2022/05/08 02:22:05;;;;;;;19.27;3.90;;;7.30;99.90;;;;;;5027020;28;20123;-79
2022/05/08 02:24:31;;;;;;;12.30;3.28;;;7.50;99.90;;;;;;5041759;28;20439;-79
2022/05/08 02:26:56;;;;;;;15.98;3.85;;;8.40;99.90;;;;;;5048959;28;20544;-79
2022/05/08 02:29:22;;;;;;;16.00;3.58;;;7.20;99.90;;;;;;5017687;28;20102;-79
2022/05/08 02:31:48;;;;;;;13.32;4.00;;;7.20;99.90;;;;;;5030008;28;20090;-79
2022/05/08 02:34:13;;;;;;;13.02;3.25;;;8.00;99.90;;;;;;5047113;28;20040;-79
2022/05/08 02:36:39;;;;;;;13.32;3.53;;;7.20;99.90;;;;;;5028098;28;20179;-79
2022/05/08 02:39:05;;;;;;;14.43;3.60;;;7.20;99.90;;;;;;5046400;28;20520;-79
2022/05/08 02:41:31;;;;;;;12.70;3.10;;;7.10;99.90;;;;;;5047542;28;20033;-79
2022/05/08 02:43:56;;;;;;;13.75;3.45;;;7.10;99.90;;;;;;5051052;28;20068;-79
2022/05/08 02:46:22;;;;;;;17.63;3.33;;;7.10;99.90;;;;;;5061395;28;20053;-78
2022/05/08 02:48:48;;;;;;;12.07;3.33;;;7.10;99.90;;;;;;5059696;28;20398;-77
2022/05/08 02:51:14;;;;;;;19.83;3.53;;;7.10;99.90;;;;;;5048506;28;20048;-77
2022/05/08 02:53:39;;;;;;;16.80;3.50;;;7.20;99.90;;;;;;5039922;28;20048;-78
2022/05/08 02:58:50;;;;;;;15.00;3.40;;;8.40;99.90;;;;;;5036828;28;20041;-78
2022/05/08 03:01:15;;;;;;;12.07;3.15;;;7.10;99.90;;;;;;5058120;28;20477;-79
2022/05/08 03:03:41;;;;;;;13.93;3.40;;;7.10;99.90;;;;;;5025597;28;20037;-79
2022/05/08 03:06:07;;;;;;;13.68;3.47;;;7.10;99.90;;;;;;5024757;28;20041;-79
2022/05/08 03:08:33;;;;;;;14.10;3.47;;;7.10;99.90;;;;;;5006660;28;20036;-79
2022/05/08 03:13:43;;;;;;;13.38;3.17;;;8.10;99.90;;;;;;5053974;28;20039;-79
2022/05/08 03:16:12;;;;;;;13.50;3.22;;;7.00;99.90;;;;;;5038262;28;20440;-79
2022/05/08 03:18:40;;;;;;;12.30;3.00;;;7.60;99.90;;;;;;5049383;28;20472;-79
2022/05/08 03:21:09;;;;;;;11.43;3.20;;;7.40;99.90;;;;;;5030571;28;20508;-79
2022/05/08 03:23:35;;;;;;;11.90;3.15;;;7.00;99.90;;;;;;5040399;28;20048;-79
2022/05/08 03:26:04;;;;;;;15.48;3.70;;;7.60;99.90;;;;;;5029229;28;20045;-78
2022/05/08 03:28:31;;;;;;;17.38;3.20;;;7.00;99.90;;;;;;5054316;28;20044;-79
2022/05/08 03:30:59;;;;;;;13.25;3.05;;;7.00;99.90;;;;;;5048612;28;20032;-78
2022/05/08 03:33:28;;;;;;;12.00;3.20;;;7.00;99.90;;;;;;5038077;28;20454;-79
2022/05/08 03:35:55;;;;;;;17.58;3.55;;;7.00;99.90;;;;;;5044171;28;20037;-79
2022/05/08 03:38:21;;;;;;;10.70;3.00;;;7.00;99.90;;;;;;5041503;28;20051;-79
2022/05/08 03:40:47;;;;;;;11.23;2.70;;;8.00;99.90;;;;;;5036725;28;20067;-79
2022/05/08 03:43:13;;;;;;;13.10;3.10;;;7.50;99.90;;;;;;5059730;28;20490;-79
2022/05/08 03:45:39;;;;;;;11.35;2.83;;;7.20;99.90;;;;;;5030336;28;20043;-79
2022/05/08 03:48:05;;;;;;;12.57;2.78;;;6.90;99.90;;;;;;5062470;28;20079;-79
2022/05/08 03:50:31;;;;;;;15.07;3.10;;;6.90;99.90;;;;;;5058970;28;20558;-79
2022/05/08 03:52:58;;;;;;;12.55;3.03;;;7.00;99.90;;;;;;5043805;28;20108;-79
2022/05/08 03:55:23;;;;;;;13.55;2.80;;;6.90;99.90;;;;;;5038871;28;20032;-79
2022/05/08 03:57:49;;;;;;;13.05;3.10;;;7.80;99.90;;;;;;5053059;28;20052;-79
2022/05/08 04:00:16;;;;;;;11.13;2.70;;;6.90;99.90;;;;;;5048053;28;20044;-78
2022/05/08 04:02:42;;;;;;;12.93;2.80;;;6.90;99.90;;;;;;5041450;28;20097;-79
2022/05/08 04:05:09;;;;;;;12.02;2.88;;;7.00;99.90;;;;;;5060023;28;20037;-79
2022/05/08 04:07:34;;;;;;;12.27;2.42;;;6.90;99.90;;;;;;5025399;28;20075;-78
2022/05/08 04:10:00;;;;;;;11.70;2.75;;;6.90;99.90;;;;;;5052747;28;20095;-79
2022/05/08 04:12:27;;;;;;;10.65;2.92;;;7.30;99.90;;;;;;5039223;28;20036;-79
2022/05/08 04:14:53;;;;;;;11.63;3.20;;;6.90;99.90;;;;;;5053442;28;20498;-79
2022/05/08 04:17:19;;;;;;;11.68;2.60;;;6.90;99.90;;;;;;5024454;28;20060;-79
2022/05/08 04:19:48;;;;;;;11.35;2.90;;;6.90;99.90;;;;;;5047087;28;20128;-78
2022/05/08 04:24:58;;;;;;;10.38;2.60;;;6.90;99.90;;;;;;5054786;28;20048;-79
2022/05/08 04:27:24;;;;;;;11.02;2.53;;;7.00;99.90;;;;;;5048432;28;20036;-79
2022/05/08 04:29:50;;;;;;;9.25;2.70;;;6.90;99.90;;;;;;5065944;28;20531;-79
2022/05/08 04:32:16;;;;;;;11.55;2.80;;;7.00;99.90;;;;;;5051210;28;20044;-79
2022/05/08 04:34:42;;;;;;;9.13;2.40;;;7.80;99.90;;;;;;5037990;28;20036;-79
2022/05/08 04:37:09;;;;;;;14.18;3.03;;;7.10;99.90;;;;;;5047174;28;20443;-79
2022/05/08 04:39:35;;;;;;;10.68;2.50;;;7.60;99.90;;;;;;5032489;28;20124;-79
2022/05/08 04:42:02;;;;;;;12.57;2.72;;;7.10;99.90;;;;;;5038902;28;20044;-79
2022/05/08 04:44:28;;;;;;;13.55;2.83;;;7.20;99.90;;;;;;5015027;28;20032;-79
2022/05/08 04:46:53;;;;;;;11.70;2.80;;;7.30;99.90;;;;;;5051716;28;20040;-79
2022/05/08 04:49:20;;;;;;;13.43;2.65;;;7.40;99.90;;;;;;5044650;28;20082;-79
2022/05/08 04:51:45;;;;;;;11.00;2.63;;;7.50;99.90;;;;;;5050452;28;20040;-78
2022/05/08 04:54:11;;;;;;;8.90;2.75;;;8.10;99.90;;;;;;5038969;28;20461;-79
2022/05/08 04:56:37;;;;;;;14.57;2.83;;;7.60;99.90;;;;;;5023692;28;20041;-79
2022/05/08 04:59:03;;;;;;;11.05;3.08;;;7.60;99.90;;;;;;5030975;28;20083;-79
2022/05/08 05:01:29;;;;;;;15.88;2.78;;;7.60;99.90;;;;;;5054113;28;20493;-79
2022/05/08 05:03:56;;;;;;;15.43;2.83;;;7.70;99.90;;;;;;5047291;28;20112;-78
2022/05/08 05:06:21;;;;;;;11.38;2.78;;;7.80;99.90;;;;;;5054503;28;20124;-78
2022/05/08 05:08:47;;;;;;;12.27;2.95;;;7.70;99.90;;;;;;5041638;28;20143;-79
2022/05/08 05:11:13;;;;;;;11.05;2.80;;;7.70;99.90;;;;;;5044450;28;20045;-79
2022/05/08 05:13:39;;;;;;;10.25;2.67;;;8.10;99.90;;;;;;5040942;28;20497;-79
2022/05/08 05:16:05;;;;;;;11.25;3.03;;;7.80;99.90;;;;;;5060519;28;20068;-79
2022/05/08 05:18:32;;;;;;;13.80;2.90;;;7.80;99.90;;;;;;5058062;28;20053;-78
2022/05/08 05:20:58;;;;;;;14.77;2.92;;;8.10;99.90;;;;;;5027793;28;20457;-79
2022/05/08 05:23:24;;;;;;;12.00;2.90;;;8.80;99.90;;;;;;5068096;28;20548;-79
2022/05/08 05:25:50;;;;;;;11.52;2.60;;;8.10;99.90;;;;;;5046292;28;20274;-79
2022/05/08 05:28:16;;;;;;;11.73;2.50;;;8.20;99.90;;;;;;5046026;28;20413;-79
2022/05/08 05:30:42;;;;;;;17.67;2.88;;;8.20;99.90;;;;;;5030476;28;20389;-79
2022/05/08 05:33:10;;;;;;;13.43;2.88;;;8.20;99.90;;;;;;5055664;28;20137;-79
2022/05/08 05:35:40;;;;;;;16.13;3.28;;;8.30;99.90;;;;;;5028229;28;20115;-79
2022/05/08 05:38:05;;;;;;;11.65;2.88;;;8.40;99.90;;;;;;5050767;28;20040;-79
2022/05/08 05:40:31;;;;;;;9.35;2.28;;;8.50;99.90;;;;;;5041748;28;20110;-78
2022/05/08 05:42:57;;;;;;;11.18;2.35;;;8.70;99.90;;;;;;5021942;28;20378;-79
2022/05/08 05:45:24;;;;;;;9.90;2.40;;;8.80;99.90;;;;;;5060567;28;20392;-79
2022/05/08 05:47:49;;;;;;;13.35;2.70;;;8.90;99.90;;;;;;5030859;28;20504;-79
2022/05/08 05:50:26;;;;;;;12.23;2.30;;;9.00;99.90;;;;;;5020132;28;20033;-79
2022/05/08 05:52:52;;;;;;;9.25;2.33;;;9.10;99.90;;;;;;5033947;28;20037;-79
2022/05/08 05:55:19;;;;;;;10.63;2.35;;;9.10;99.90;;;;;;5043114;28;20147;-79
2022/05/08 05:57:45;;;;;;;12.05;2.45;;;9.10;99.90;;;;;;5057580;28;20076;-78
2022/05/08 06:00:13;;;;;;;14.65;2.92;;;9.20;99.90;;;;;;5051743;28;20198;-79
2022/05/08 06:02:40;;;;;;;10.10;2.33;;;9.10;99.90;;;;;;5049780;28;20047;-79
2022/05/08 06:05:07;;;;;;;11.30;2.40;;;9.20;99.90;;;;;;5069332;28;20580;-79
2022/05/08 06:07:34;;;;;;;10.73;2.45;;;9.20;99.90;;;;;;5053185;28;20494;-79
2022/05/08 06:10:00;;;;;;;8.73;2.30;;;9.20;99.90;;;;;;5043319;28;20119;-79
2022/05/08 06:12:26;;;;;;;12.93;3.05;;;9.30;99.90;;;;;;5025214;28;20036;-79
2022/05/08 06:14:52;;;;;;;13.10;2.30;;;9.30;99.90;;;;;;5025762;28;20041;-79
2022/05/08 06:17:17;;;;;;;10.10;2.40;;;9.30;99.90;;;;;;5052540;28;20071;-79
2022/05/08 06:19:43;;;;;;;11.65;2.40;;;9.40;99.90;;;;;;5049270;28;20041;-79
2022/05/08 06:22:09;;;;;;;14.75;2.58;;;9.40;99.90;;;;;;5047388;28;20051;-78
2022/05/08 06:24:35;;;;;;;13.05;2.75;;;9.50;99.90;;;;;;5041975;28;20037;-78
2022/05/08 06:27:01;;;;;;;11.45;2.53;;;9.60;99.90;;;;;;5043888;28;20124;-78
2022/05/08 06:29:27;;;;;;;14.15;2.72;;;9.80;99.90;;;;;;5032764;28;20048;-79
2022/05/08 06:31:54;;;;;;;14.15;2.42;;;9.80;99.90;;;;;;5024497;28;20040;-79
2022/05/08 06:34:20;;;;;;;13.75;2.50;;;9.80;99.90;;;;;;5052067;28;20264;-79
2022/05/08 06:36:45;;;;;;;9.50;2.30;;;9.80;99.90;;;;;;5032007;28;20120;-79
2022/05/08 06:39:13;;;;;;;10.75;2.80;;;9.80;99.90;;;;;;5049078;28;20120;-79
2022/05/08 06:41:39;;;;;;;15.70;3.13;;;9.80;99.90;;;;;;5066925;28;20045;-78
2022/05/08 06:44:05;;;;;;;14.13;3.03;;;9.70;99.90;;;;;;5058468;28;20048;-79
2022/05/08 06:46:32;;;;;;;11.98;2.53;;;9.70;99.90;;;;;;5047566;28;20045;-79
2022/05/08 06:49:02;;;;;;;12.57;3.20;;;9.70;99.90;;;;;;5029818;28;20090;-79
2022/05/08 06:51:28;;;;;;;13.48;2.83;;;9.80;99.90;;;;;;5057957;28;20063;-80
2022/05/08 06:53:54;;;;;;;15.88;2.72;;;9.80;99.90;;;;;;5034466;28;20287;-79
2022/05/08 06:56:20;;;;;;;12.45;2.88;;;9.80;99.90;;;;;;5058373;28;20040;-78
2022/05/08 07:01:38;;;;;;;13.93;2.58;;;9.80;99.90;;;;;;5041315;28;20166;-78
2022/05/08 07:04:06;;;;;;;16.95;2.85;;;10.00;99.90;;;;;;5047819;28;20422;-78
2022/05/08 07:06:32;;;;;;;11.73;2.45;;;10.10;99.90;;;;;;5044290;28;20236;-78
2022/05/08 07:09:01;;;;;;;12.25;2.40;;;10.10;99.90;;;;;;5050141;28;20182;-77
2022/05/08 07:11:30;;;;;;;17.90;2.78;;;10.20;99.90;;;;;;5063063;28;20044;-83
2022/05/08 07:13:59;;;;;;;11.98;2.78;;;11.20;99.90;;;;;;5047329;28;20037;-81
2022/05/08 07:16:26;;;;;;;12.43;3.00;;;10.60;99.90;;;;;;5033945;28;20080;-81
2022/05/08 07:18:52;;;;;;;15.05;2.67;;;10.90;99.90;;;;;;5058391;28;20370;-81
2022/05/08 07:21:20;;;;;;;14.80;2.92;;;11.00;99.90;;;;;;5058499;28;20124;-79
2022/05/08 07:23:47;;;;;;;11.38;2.58;;;11.20;99.90;;;;;;5030712;28;20043;-79
2022/05/08 07:26:13;;;;;;;13.18;2.58;;;11.40;99.90;;;;;;5014667;28;20032;-80
2022/05/08 07:28:39;;;;;;;14.18;3.33;;;11.60;99.90;;;;;;5061102;28;20037;-81
2022/05/08 07:31:05;;;;;;;14.02;2.50;;;11.80;99.90;;;;;;5023469;28;20093;-80
2022/05/08 07:33:34;;;;;;;12.55;2.70;;;11.90;99.90;;;;;;5038396;28;20029;-80
2022/05/08 07:36:13;;;;;;;13.63;2.80;;;12.00;99.90;;;;;;5027706;28;20040;-80
2022/05/08 07:38:44;;;;;;;13.60;2.38;;;12.00;99.90;;;;;;5055739;28;20043;-80
2022/05/08 07:41:15;;;;;;;16.27;2.63;;;12.10;99.90;;;;;;5042133;28;20040;-81
2022/05/08 07:43:44;;;;;;;11.35;2.60;;;12.20;99.90;;;;;;5058748;28;20190;-80
2022/05/08 07:46:10;;;;;;;10.65;2.30;;;12.30;99.90;;;;;;5040925;28;20082;-80
2022/05/08 07:48:36;;;;;;;12.95;2.80;;;12.30;99.90;;;;;;5046824;28;20431;-79
2022/05/08 07:51:02;;;;;;;12.55;2.33;;;12.50;99.90;;;;;;5040369;28;20102;-79
2022/05/08 07:53:29;;;;;;;11.25;2.50;;;12.40;99.90;;;;;;5050703;28;20048;-79
2022/05/08 07:55:55;;;;;;;14.30;2.58;;;12.20;99.90;;;;;;5046011;28;20046;-80
2022/05/08 07:58:22;;;;;;;13.95;2.70;;;11.90;99.90;;;;;;5028560;28;20578;-80
2022/05/08 08:00:49;;;;;;;12.77;2.75;;;11.80;99.90;;;;;;5057673;28;20086;-80
2022/05/08 08:03:18;;;;;;;10.82;2.58;;;11.60;99.90;;;;;;5058676;28;20071;-80
2022/05/08 08:05:44;;;;;;;12.05;2.42;;;11.50;99.90;;;;;;5047027;28;20029;-79
2022/05/08 08:08:09;;;;;;;13.65;2.65;;;11.60;99.90;;;;;;5047082;28;20067;-79
2022/05/08 08:10:35;;;;;;;11.23;2.60;;;11.70;99.90;;;;;;5051814;28;20488;-80
2022/05/08 08:13:01;;;;;;;11.10;2.67;;;11.90;99.90;;;;;;5042319;28;20045;-80
2022/05/08 08:15:27;;;;;;;10.40;2.33;;;12.00;99.90;;;;;;5043362;28;20036;-80
2022/05/08 08:17:53;;;;;;;13.02;2.53;;;12.00;99.90;;;;;;5052316;28;20113;-79
2022/05/08 08:20:19;;;;;;;11.23;2.53;;;12.20;99.90;;;;;;5041304;28;20123;-81
2022/05/08 08:22:45;;;;;;;14.15;2.40;;;12.30;99.90;;;;;;5034363;28;20041;-80
2022/05/08 08:25:10;;;;;;;11.43;2.45;;;12.10;99.90;;;;;;5070127;28;20374;-80
2022/05/08 08:27:36;;;;;;;11.68;2.60;;;12.00;99.90;;;;;;5017633;28;20036;-81
2022/05/08 08:30:03;;;;;;;13.52;3.13;;;11.90;99.90;;;;;;5011218;28;20045;-81
2022/05/08 08:32:31;;;;;;;12.15;2.50;;;11.90;99.90;;;;;;5032516;28;20036;-80
2022/05/08 08:34:57;;;;;;;13.77;2.67;;;11.90;99.90;;;;;;5050294;28;20520;-79
2022/05/08 08:37:23;;;;;;;14.50;3.67;;;12.00;99.90;;;;;;5026314;28;20048;-80
2022/05/08 08:39:49;;;;;;;12.60;2.85;;;12.10;99.90;;;;;;5064662;28;20033;-81
2022/05/08 08:42:28;;;;;;;14.43;2.50;;;12.20;99.90;;;;;;5036608;28;20386;-81
2022/05/08 08:48:02;;;;;;;10.40;2.17;;;12.30;99.90;;;;;;5057726;28;20040;-80
2022/05/08 08:50:28;;;;;;;12.10;2.60;;;12.30;99.90;;;;;;5059709;28;20040;-80
2022/05/08 08:52:57;;;;;;;12.35;2.78;;;12.40;99.90;;;;;;5043763;28;20036;-80
2022/05/08 08:55:23;;;;;;;11.32;2.30;;;12.40;99.90;;;;;;5049823;28;20036;-80
2022/05/08 08:57:50;;;;;;;13.63;3.03;;;11.30;99.90;;;;;;5054612;28;20036;-80
2022/05/08 09:00:18;;;;;;;10.80;2.35;;;12.30;99.90;;;;;;5011436;28;20040;-79
2022/05/08 09:02:44;;;;;;;9.48;2.22;;;12.40;99.90;;;;;;5063381;28;20036;-80
2022/05/08 09:05:10;;;;;;;14.25;2.60;;;12.60;99.90;;;;;;5068736;28;20044;-81
2022/05/08 09:07:43;;;;;;;13.95;2.85;;;12.70;99.90;;;;;;5055349;28;20049;-80
2022/05/08 09:10:15;;;;;;;11.32;2.83;;;12.70;99.90;;;;;;5052744;28;20036;-81
2022/05/08 09:13:05;;;;;;;10.98;2.55;;;12.80;99.90;;;;;;5058003;28;20106;-79
2022/05/08 09:15:36;;;;;;;14.98;2.72;;;12.80;99.90;;;;;;5039793;28;20053;-79
2022/05/08 09:18:08;;;;;;;10.60;2.33;;;12.70;99.90;;;;;;5057032;28;20140;-80
2022/05/08 09:20:47;;;;;;;12.85;2.90;;;12.80;99.90;;;;;;5064569;28;20094;-81
2022/05/08 09:23:17;;;;;;;15.00;3.03;;;12.80;99.90;;;;;;5063607;28;20041;-81
2022/05/08 09:25:52;;;;;;;11.45;2.67;;;12.90;99.90;;;;;;5026830;28;20033;-79
2022/05/08 09:28:20;;;;;;;12.82;2.88;;;13.00;99.90;;;;;;5054237;28;20040;-80
2022/05/08 09:31:02;;;;;;;13.20;2.65;;;13.30;99.90;;;;;;5053739;28;20053;-80
2022/05/08 09:33:31;;;;;;;12.00;2.45;;;13.60;99.90;;;;;;5053294;28;20045;-80
2022/05/08 09:35:58;;;;;;;9.55;2.30;;;13.60;99.90;;;;;;5051865;28;20047;-80
2022/05/08 09:38:43;;;;;;;14.05;3.03;;;13.10;99.90;;;;;;5034531;28;20041;-79
2022/05/08 09:41:09;;;;;;;16.45;3.35;;;13.70;99.90;;;;;;5056599;28;20042;-80
2022/05/08 09:43:35;;;;;;;13.25;2.67;;;13.50;99.90;;;;;;5030496;28;20040;-81
2022/05/08 09:46:04;;;;;;;14.30;2.75;;;13.70;99.90;;;;;;5057719;28;20040;-80
2022/05/08 09:48:31;;;;;;;15.52;2.85;;;13.70;99.90;;;;;;5027361;28;20460;-80
2022/05/08 09:50:58;;;;;;;13.77;2.85;;;13.80;99.90;;;;;;5032111;28;20040;-80
2022/05/08 09:53:25;;;;;;;12.50;2.83;;;13.80;99.90;;;;;;5049436;28;20052;-82
2022/05/08 09:55:56;;;;;;;12.55;2.90;;;13.80;99.90;;;;;;5070340;28;20500;-83
2022/05/08 09:58:22;;;;;;;10.40;2.67;;;13.80;99.90;;;;;;5063444;28;20375;-80
2022/05/08 10:00:48;;;;;;;11.57;2.40;;;13.80;99.90;;;;;;5049924;28;20105;-80
2022/05/08 10:03:15;;;;;;;12.75;2.80;;;13.70;99.90;;;;;;5051157;28;20076;-80
2022/05/08 10:05:44;;;;;;;10.35;2.63;;;13.80;99.90;;;;;;5034828;28;20051;-80
2022/05/08 10:08:13;;;;;;;10.23;2.58;;;13.90;99.90;;;;;;5040546;28;20438;-81
2022/05/08 10:13:57;;;;;;;11.45;2.70;;;13.90;99.90;;;;;;5045598;28;20119;-81
2022/05/08 10:16:45;;;;;;;13.25;2.60;;;13.80;99.90;;;;;;5059327;28;20143;-79
2022/05/08 10:22:03;;;;;;;10.93;2.72;;;14.00;99.90;;;;;;5069112;28;20124;-80
2022/05/08 10:24:35;;;;;;;12.25;2.50;;;14.20;99.90;;;;;;5059520;28;20039;-80
2022/05/08 10:27:11;;;;;;;15.85;2.75;;;14.10;99.90;;;;;;5049314;28;20048;-80
2022/05/08 10:29:41;;;;;;;12.35;2.88;;;14.20;99.90;;;;;;5049094;28;20040;-81
2022/05/08 10:32:09;;;;;;;11.80;2.70;;;14.20;99.90;;;;;;5058973;28;20484;-80
2022/05/08 10:34:37;;;;;;;11.88;2.58;;;14.10;99.90;;;;;;5032930;28;20049;-81
2022/05/08 10:37:12;;;;;;;12.73;2.53;;;14.10;99.90;;;;;;5065261;28;20429;-80
2022/05/08 10:39:42;;;;;;;13.35;3.00;;;14.30;99.90;;;;;;5043970;28;20745;-80
2022/05/08 10:42:33;;;;;;;12.68;2.83;;;14.30;99.90;;;;;;5047536;28;20190;-80
2022/05/08 10:45:00;;;;;;;14.73;2.63;;;14.50;99.90;;;;;;5042811;28;20029;-80
2022/05/08 10:47:32;;;;;;;13.77;3.00;;;14.50;99.90;;;;;;5051354;28;20524;-80
2022/05/08 10:49:59;;;;;;;13.55;2.70;;;14.50;99.90;;;;;;5049998;28;20524;-81
2022/05/08 10:52:25;;;;;;;12.75;2.70;;;14.50;99.90;;;;;;5033379;28;20036;-81
2022/05/08 10:55:05;;;;;;;11.88;3.08;;;14.60;99.90;;;;;;5029654;28;20178;-81
2022/05/08 10:57:32;;;;;;;13.73;3.10;;;14.60;99.90;;;;;;5029434;28;20363;-80
2022/05/08 10:59:59;;;;;;;10.75;2.33;;;14.60;99.90;;;;;;5052436;28;20398;-81
2022/05/08 11:02:51;;;;;;;11.98;2.40;;;14.60;99.90;;;;;;5057124;28;20044;-80
2022/05/08 11:05:18;;;;;;;15.10;2.55;;;14.60;99.90;;;;;;5050974;28;20075;-80
2022/05/08 11:07:53;;;;;;;16.92;2.60;;;14.50;99.90;;;;;;5054142;28;20040;-80
2022/05/08 11:10:29;;;;;;;12.32;2.67;;;14.60;99.90;;;;;;5050864;28;20041;-81
2022/05/08 11:13:02;;;;;;;9.43;2.30;;;14.80;99.90;;;;;;5061336;28;20051;-80
2022/05/08 11:15:32;;;;;;;;;;;14.70;99.90;;;;;;5031847;28;20119;-81
2022/05/08 11:18:09;;;;;;;11.70;2.97;;;14.80;99.90;;;;;;5058179;28;19987;-80
2022/05/08 11:20:48;;;;;;;13.02;2.75;;;14.80;99.90;;;;;;5051700;28;20497;-81
2022/05/08 11:23:15;;;;;;;10.88;2.33;;;14.70;99.90;;;;;;5066357;28;20298;-81
2022/05/08 11:25:45;;;;;;;13.95;2.47;;;14.60;99.90;;;;;;5050328;28;20051;-80
2022/05/08 11:28:16;;;;;;;12.98;2.60;;;14.70;99.90;;;;;;5050661;28;20086;-80
2022/05/08 11:30:43;;;;;;;10.75;2.17;;;14.90;99.90;;;;;;5043136;28;20041;-81
2022/05/08 11:36:05;;;;;;;9.60;2.10;;;14.90;99.90;;;;;;5051705;28;20198;-81
2022/05/08 11:38:52;;;;;;;11.15;2.38;;;15.10;99.90;;;;;;5056476;28;20101;-81
2022/05/08 11:41:23;;;;;;;9.23;2.33;;;15.00;99.90;;;;;;5020583;28;20083;-81
2022/05/08 11:43:50;;;;;;;13.50;2.78;;;15.00;99.90;;;;;;5021653;28;20048;-81
2022/05/08 11:46:18;;;;;;;13.77;2.88;;;15.00;99.90;;;;;;5024747;28;20036;-81
2022/05/08 11:48:49;;;;;;;9.75;2.15;;;14.90;99.90;;;;;;5055163;28;20037;-81
2022/05/08 11:51:19;;;;;;;8.63;2.20;;;15.10;99.90;;;;;;5050475;28;20370;-81
2022/05/08 11:53:52;;;;;;;12.60;2.50;;;15.30;99.90;;;;;;5033087;28;20037;-82
2022/05/08 11:56:30;;;;;;;12.68;2.92;;;15.40;99.90;;;;;;5044880;28;20511;-81
2022/05/08 11:58:57;;;;;;;9.88;2.58;;;15.30;99.90;;;;;;5038677;28;20028;-82
2022/05/08 12:01:30;;;;;;;13.13;2.80;;;15.20;99.90;;;;;;5047399;28;20489;-81
2022/05/08 12:04:16;;;;;;;11.48;2.17;;;15.20;99.90;;;;;;5053069;28;20033;-81
2022/05/08 12:06:55;;;;;;;16.48;2.55;;;15.20;99.90;;;;;;5062867;28;20048;-81
2022/05/08 12:09:24;;;;;;;14.35;2.80;;;15.30;99.90;;;;;;5065613;28;20080;-82
2022/05/08 12:11:49;;;;;;;12.50;2.58;;;15.30;99.90;;;;;;5039174;28;20036;-82
2022/05/08 12:14:15;;;;;;;12.80;2.90;;;15.30;99.90;;;;;;5048591;28;20411;-81
2022/05/08 12:17:00;;;;;;;11.70;3.10;;;15.40;99.90;;;;;;5058012;28;20072;-81
2022/05/08 12:19:26;;;;;;;9.77;2.42;;;15.50;99.90;;;;;;5035001;28;20053;-81
2022/05/08 12:21:52;;;;;;;10.13;2.90;;;15.60;99.90;;;;;;5059012;28;20047;-81
2022/05/08 12:24:17;;;;;;;12.05;2.50;;;15.80;99.90;;;;;;5046314;28;20033;-82
2022/05/08 12:26:44;;;;;;;10.10;2.47;;;15.80;99.90;;;;;;5045556;28;20037;-81
2022/05/08 12:29:20;;;;;;;13.57;2.75;;;15.70;99.90;;;;;;5027832;28;20040;-83
2022/05/08 12:31:50;;;;;;;10.70;2.38;;;15.70;99.90;;;;;;5049838;28;20048;-81
2022/05/08 12:34:17;;;;;;;11.38;2.25;;;15.50;99.90;;;;;;5048417;28;20044;-82
2022/05/08 12:36:43;;;;;;;13.10;2.60;;;15.50;99.90;;;;;;5026031;28;20068;-81
2022/05/08 12:39:09;;;;;;;11.68;2.40;;;15.50;99.90;;;;;;5043186;28;20044;-82
2022/05/08 12:41:36;;;;;;;10.90;2.65;;;15.60;99.90;;;;;;5019571;28;20401;-83
2022/05/08 12:44:04;;;;;;;13.80;2.90;;;15.60;99.90;;;;;;5043657;28;20040;-81
2022/05/08 12:46:30;;;;;;;13.23;3.17;;;15.50;99.90;;;;;;5038909;28;20274;-82
2022/05/08 12:49:02;;;;;;;12.75;2.40;;;15.60;99.90;;;;;;5031653;28;20040;-82
2022/05/08 12:51:29;;;;;;;10.75;2.83;;;15.60;99.90;;;;;;5035953;28;20087;-81
2022/05/08 12:53:55;;;;;;;14.88;2.95;;;15.50;99.90;;;;;;5040841;28;20036;-81
2022/05/08 12:56:21;;;;;;;11.90;2.80;;;15.50;99.90;;;;;;5004457;28;20187;-81
2022/05/08 13:01:30;;;;;;;12.00;2.50;;;15.40;99.90;;;;;;5060376;28;20528;-82
2022/05/08 13:03:56;;;;;;;14.40;2.67;;;15.40;99.90;;;;;;5044648;28;20060;-80
2022/05/08 13:06:22;;;;;;;12.90;2.50;;;15.30;99.90;;;;;;5030790;28;20622;-82
2022/05/08 13:08:48;;;;;;;14.45;2.90;;;15.50;99.90;;;;;;5041718;28;20093;-80
2022/05/08 13:11:13;;;;;;;10.60;2.70;;;15.50;99.90;;;;;;5043632;28;20135;-81
2022/05/08 13:13:39;;;;;;;13.25;2.88;;;15.60;99.90;;;;;;5043972;28;20088;-81